Time;durP1;ratioP1;P1;durP2;ratioP2;P2;SDS_P1;SDS_P2;PMS_P1;PMS_P2;Temp;Humidity;BMP_temperature;BMP_pressure;BME280_temperature;BME280_humidity;BME280_pressure;Samples;Min_cycle;Max_cycle;Signal;HPM_P1;HPM_P2
2022/11/05 00:09:29;;;;;;;;;;;16.50;99.90;;;;;;5113273;28;20349;-89
2022/11/05 00:17:26;;;;;;;;;;;16.40;99.90;;;;;;5090169;28;19915;-89
2022/11/05 00:19:52;;;;;;;;;;;16.40;99.90;;;;;;5112248;28;20169;-89
2022/11/05 00:25:13;;;;;;;;;;;16.40;99.90;;;;;;5113678;28;19969;-89
2022/11/05 00:27:39;;;;;;;;;;;16.40;99.90;;;;;;5113574;28;19908;-89
2022/11/05 00:30:06;;;;;;;;;;;16.40;99.90;;;;;;5112541;28;19997;-89
2022/11/05 00:32:31;;;;;;;;;;;16.40;99.90;;;;;;5113978;28;19919;-89
2022/11/05 00:34:57;;;;;;;;;;;16.40;99.90;;;;;;5114046;28;19907;-89
2022/11/05 00:37:22;;;;;;;;;;;16.40;99.90;;;;;;5114298;28;19918;-89
2022/11/05 00:39:48;;;;;;;;;;;16.40;99.90;;;;;;5113655;28;19918;-89
2022/11/05 00:45:01;;;;;;;;;;;16.40;99.90;;;;;;5115006;28;19918;-89
2022/11/05 00:50:11;;;;;;;;;;;16.40;99.90;;;;;;5113944;28;19946;-89
2022/11/05 00:52:55;;;;;;;;;;;16.30;99.90;;;;;;5113511;28;20204;-89
2022/11/05 00:55:21;;;;;;;;;;;16.40;99.90;;;;;;5113207;28;20297;-89
2022/11/05 00:57:46;;;;;;;;;;;16.30;99.90;;;;;;5113659;28;20388;-89
2022/11/05 01:00:12;;;;;;;;;;;16.30;99.90;;;;;;5114506;28;19940;-89
2022/11/05 01:02:38;;;;;;;;;;;16.30;99.90;;;;;;5114260;28;20312;-89
2022/11/05 01:05:03;;;;;;;;;;;16.30;99.90;;;;;;5113253;28;19912;-89
2022/11/05 01:07:29;;;;;;;;;;;16.30;99.90;;;;;;5114761;28;19923;-89
2022/11/05 01:09:55;;;;;;;;;;;16.30;99.90;;;;;;5114262;28;19912;-89
2022/11/05 01:12:20;;;;;;;;;;;16.30;99.90;;;;;;5115733;28;19942;-89
2022/11/05 01:14:46;;;;;;;;;;;16.30;99.90;;;;;;5114689;28;19933;-89
2022/11/05 01:17:11;;;;;;;;;;;16.30;99.90;;;;;;5114922;28;20090;-89
2022/11/05 01:19:38;;;;;;;;;;;16.30;99.90;;;;;;5113873;28;19908;-89
2022/11/05 01:22:03;;;;;;;;;;;16.30;99.90;;;;;;5113749;28;20170;-89
2022/11/05 01:24:29;;;;;;;;;;;16.30;99.90;;;;;;5114139;28;20024;-89
2022/11/05 01:26:55;;;;;;;;;;;16.30;99.90;;;;;;5115138;28;20172;-89
2022/11/05 01:29:20;;;;;;;;;;;16.30;99.90;;;;;;5115783;28;19911;-89
2022/11/05 01:31:47;;;;;;;;;;;16.30;99.90;;;;;;5115414;28;19999;-89
2022/11/05 01:34:12;;;;;;;;;;;16.30;99.90;;;;;;5115010;28;19908;-89
2022/11/05 01:36:38;;;;;;;;;;;16.30;99.90;;;;;;5118587;28;20345;-89
2022/11/05 01:39:03;;;;;;;;;;;16.30;99.90;;;;;;5116264;28;19908;-89
2022/11/05 01:41:29;;;;;;;;;;;16.30;99.90;;;;;;5117313;28;20162;-89
2022/11/05 01:43:58;;;;;;;;;;;16.30;99.90;;;;;;5116328;28;20131;-89
2022/11/05 01:46:29;;;;;;;;;;;16.30;99.90;;;;;;5116322;28;20002;-89
2022/11/05 01:48:55;;;;;;;;;;;16.30;99.90;;;;;;5114659;28;20394;-89
2022/11/05 01:51:23;;;;;;;;;;;16.30;99.90;;;;;;5117955;28;19908;-89
2022/11/05 01:53:54;;;;;;;;;;;16.30;99.90;;;;;;5117504;28;19915;-89
2022/11/05 01:56:25;;;;;;;;;;;16.30;99.90;;;;;;5118159;28;19908;-89
2022/11/05 01:59:02;;;;;;;;;;;16.30;99.90;;;;;;5102196;28;19942;-89
2022/11/05 02:01:28;;;;;;;;;;;16.30;99.90;;;;;;5112288;28;19915;-89
2022/11/05 02:03:54;;;;;;;;;;;16.30;99.90;;;;;;5116170;28;20153;-89
2022/11/05 02:06:20;;;;;;;;;;;16.30;99.90;;;;;;5114466;28;20173;-89
2022/11/05 02:09:04;;;;;;;;;;;16.30;99.90;;;;;;5114371;28;19908;-89
2022/11/05 02:11:30;;;;;;;;;;;16.30;99.90;;;;;;5115908;28;19918;-89
2022/11/05 02:13:55;;;;;;;;;;;16.30;99.90;;;;;;5115370;28;20025;-89
2022/11/05 02:16:21;;;;;;;;;;;16.30;99.80;;;;;;5116523;28;20002;-89
2022/11/05 02:18:46;;;;;;;;;;;16.30;99.80;;;;;;5114077;28;20339;-89
2022/11/05 02:21:15;;;;;;;;;;;16.30;99.80;;;;;;5115108;28;19922;-89
2022/11/05 02:23:50;;;;;;;;;;;16.30;99.80;;;;;;5115625;28;19907;-89
2022/11/05 02:26:21;;;;;;;;;;;16.20;99.70;;;;;;5116595;28;19907;-89
2022/11/05 02:29:02;;;;;;;;;;;16.30;99.70;;;;;;5115743;28;20185;-89
2022/11/05 02:31:28;;;;;;;;;;;16.20;99.70;;;;;;5115630;28;19908;-89
2022/11/05 02:33:55;;;;;;;;;;;16.20;99.60;;;;;;5117850;28;19985;-89
2022/11/05 02:36:24;;;;;;;;;;;16.20;99.60;;;;;;5116974;28;19908;-89
2022/11/05 02:38:57;;;;;;;;;;;16.20;99.60;;;;;;5117178;28;19920;-89
2022/11/05 02:41:29;;;;;;;;;;;16.20;99.60;;;;;;5116685;28;19930;-89
2022/11/05 02:43:57;;;;;;;;;;;16.20;99.60;;;;;;5115887;28;20151;-89
2022/11/05 02:46:26;;;;;;;;;;;16.20;99.50;;;;;;5115117;28;19911;-89
2022/11/05 02:48:58;;;;;;;;;;;16.20;99.50;;;;;;5117025;28;20308;-89
2022/11/05 02:51:42;;;;;;;;;;;16.20;99.50;;;;;;5115006;28;19908;-89
2022/11/05 02:54:27;;;;;;;;;;;16.20;99.40;;;;;;5116017;28;19935;-89
2022/11/05 02:56:53;;;;;;;;;;;16.20;99.40;;;;;;5115379;28;19908;-89
2022/11/05 02:59:19;;;;;;;;;;;16.20;99.40;;;;;;5115375;28;19907;-89
2022/11/05 03:01:45;;;;;;;;;;;16.20;99.40;;;;;;5115261;28;20338;-89
2022/11/05 03:04:13;;;;;;;;;;;16.30;99.40;;;;;;5115847;28;19907;-89
2022/11/05 03:06:38;;;;;;;;;;;16.20;99.30;;;;;;5117132;28;19935;-89
2022/11/05 03:09:04;;;;;;;;;;;16.20;99.40;;;;;;5116501;28;20216;-89
2022/11/05 03:11:31;;;;;;;;;;;16.20;99.30;;;;;;5115694;28;19908;-89
2022/11/05 03:14:06;;;;;;;;;;;16.20;99.20;;;;;;5115053;28;19918;-89
2022/11/05 03:16:38;;;;;;;;;;;16.20;99.20;;;;;;5115574;28;19916;-89
2022/11/05 03:19:08;;;;;;;;;;;16.20;99.10;;;;;;5114627;28;19914;-89
2022/11/05 03:21:52;;;;;;;;;;;16.20;99.10;;;;;;5115251;28;19915;-89
2022/11/05 03:24:30;;;;;;;;;;;16.20;99.10;;;;;;5116656;28;19915;-89
2022/11/05 03:26:59;;;;;;;;;;;16.20;99.10;;;;;;5117776;28;19907;-89
2022/11/05 03:29:31;;;;;;;;;;;16.20;99.00;;;;;;5116540;28;20146;-90
2022/11/05 03:31:58;;;;;;;;;;;16.20;99.00;;;;;;5117624;28;19919;-90
2022/11/05 03:34:28;;;;;;;;;;;16.20;98.90;;;;;;5117625;28;19998;-89
2022/11/05 03:36:55;;;;;;;;;;;16.20;98.90;;;;;;5116801;28;19916;-90
2022/11/05 03:39:28;;;;;;;;;;;16.20;98.90;;;;;;5116486;28;20000;-90
2022/11/05 03:41:55;;;;;;;;;;;16.20;98.90;;;;;;5117284;28;19908;-89
2022/11/05 03:44:24;;;;;;;;;;;16.20;98.80;;;;;;5117395;28;19907;-89
2022/11/05 03:46:51;;;;;;;;;;;16.20;98.80;;;;;;5116806;28;20002;-89
2022/11/05 03:49:19;;;;;;;;;;;16.20;98.80;;;;;;5115188;28;20212;-89
2022/11/05 03:51:50;;;;;;;;;;;16.20;98.80;;;;;;5115065;28;19908;-90
2022/11/05 03:54:15;;;;;;;;;;;16.20;98.70;;;;;;5114785;28;19908;-90
2022/11/05 03:56:44;;;;;;;;;;;16.20;98.80;;;;;;5113749;28;19961;-90
2022/11/05 03:59:10;;;;;;;;;;;16.20;98.70;;;;;;5112803;28;20000;-90
2022/11/05 04:01:36;;;;;;;;;;;16.20;99.00;;;;;;5114321;28;19915;-90
2022/11/05 04:04:02;;;;;;;;;;;16.20;98.70;;;;;;5114120;28;19931;-90
2022/11/05 04:14:40;;;;;;;;;;;16.10;98.60;;;;;;5115917;28;20011;-90
2022/11/05 04:17:08;;;;;;;;;;;16.10;98.60;;;;;;5115874;28;20264;-90
2022/11/05 04:25:14;;;;;;;;;;;16.10;98.60;;;;;;5113957;28;20346;-90
2022/11/05 04:27:40;;;;;;;;;;;16.10;98.70;;;;;;5112939;28;20204;-90
2022/11/05 04:30:18;;;;;;;;;;;16.00;98.70;;;;;;5114080;28;19912;-90
2022/11/05 04:33:02;;;;;;;;;;;16.10;98.70;;;;;;5113888;28;19921;-89
2022/11/05 04:35:35;;;;;;;;;;;16.00;98.70;;;;;;5112891;28;19916;-90
2022/11/05 04:38:02;;;;;;;;;;;16.00;98.70;;;;;;5111067;28;19918;-90
2022/11/05 04:40:28;;;;;;;;;;;16.10;98.80;;;;;;5112492;28;19907;-90
2022/11/05 04:42:54;;;;;;;;;;;16.30;98.20;;;;;;5111179;28;19919;-90
2022/11/05 04:45:20;;;;;;;;;;;16.90;96.60;;;;;;5112078;28;20307;-90
2022/11/05 04:47:45;;;;;;;;;;;17.50;94.90;;;;;;5112887;28;20266;-90
2022/11/05 04:50:12;;;;;;;;;;;18.00;93.20;;;;;;5111445;28;19919;-90
2022/11/05 04:52:38;;;;;;;;;;;18.40;91.70;;;;;;5112643;28;19908;-90
2022/11/05 04:55:04;;;;;;;;;;;18.70;90.60;;;;;;5113547;28;19918;-90
2022/11/05 04:57:29;;;;;;;;;;;18.90;89.50;;;;;;5113806;28;20088;-90
2022/11/05 04:59:55;;;;;;;;;;;19.00;88.50;;;;;;5113491;28;19912;-90
2022/11/05 05:02:20;;;;;;;;;;;19.10;87.60;;;;;;5112839;28;19908;-90
2022/11/05 05:04:46;;;;;;;;;;;19.00;87.60;;;;;;5112822;28;19908;-90
2022/11/05 05:07:12;;;;;;;;;;;19.00;87.50;;;;;;5112838;28;19916;-90
2022/11/05 05:09:37;;;;;;;;;;;18.90;87.60;;;;;;5114105;28;20170;-90
2022/11/05 05:12:03;;;;;;;;;;;18.90;88.00;;;;;;5113925;28;20072;-90
2022/11/05 05:14:29;;;;;;;;;;;18.70;88.50;;;;;;5116067;28;20327;-90
2022/11/05 05:16:54;;;;;;;;;;;18.70;89.10;;;;;;5116872;28;19923;-90
2022/11/05 05:19:20;;;;;;;;;;;18.60;89.80;;;;;;5117031;28;19911;-90
2022/11/05 05:21:46;;;;;;;;;;;18.50;90.20;;;;;;5116950;28;20060;-90
2022/11/05 05:24:13;;;;;;;;;;;18.30;90.50;;;;;;5119164;28;19907;-90
2022/11/05 05:26:40;;;;;;;;;;;18.30;90.90;;;;;;5118305;28;19908;-90
2022/11/05 05:29:06;;;;;;;;;;;18.20;91.30;;;;;;5116949;28;19972;-90
2022/11/05 05:31:32;;;;;;;;;;;18.00;91.50;;;;;;5117250;28;19990;-91
2022/11/05 05:33:57;;;;;;;;;;;18.00;91.80;;;;;;5115422;28;20002;-90
2022/11/05 05:36:23;;;;;;;;;;;17.90;92.00;;;;;;5114678;28;19919;-90
2022/11/05 05:38:49;;;;;;;;;;;17.80;92.20;;;;;;5115250;28;19923;-90
2022/11/05 05:41:15;;;;;;;;;;;17.70;92.50;;;;;;5114975;28;19908;-90
2022/11/05 05:43:40;;;;;;;;;;;17.60;92.80;;;;;;5115723;28;20352;-90
2022/11/05 05:46:08;;;;;;;;;;;17.50;93.10;;;;;;5114861;28;20077;-90
2022/11/05 05:48:33;;;;;;;;;;;17.50;93.30;;;;;;5116778;28;20339;-90
2022/11/05 05:51:03;;;;;;;;;;;17.40;93.50;;;;;;5117095;28;19919;-90
2022/11/05 05:53:29;;;;;;;;;;;17.30;93.80;;;;;;5117047;28;20170;-90
2022/11/05 05:55:55;;;;;;;;;;;17.20;94.00;;;;;;5116504;28;19958;-90
2022/11/05 05:58:21;;;;;;;;;;;17.20;94.20;;;;;;5116579;28;19919;-91
2022/11/05 06:00:47;;;;;;;;;;;17.10;94.40;;;;;;5116192;28;19916;-90
2022/11/05 06:03:12;;;;;;;;;;;17.00;94.60;;;;;;5115972;28;19969;-90
2022/11/05 06:05:38;;;;;;;;;;;17.00;94.80;;;;;;5117725;28;19915;-90
2022/11/05 06:08:04;;;;;;;;;;;16.90;95.00;;;;;;5116312;28;19918;-90
2022/11/05 06:10:29;;;;;;;;;;;16.80;95.10;;;;;;5114261;28;20065;-90
2022/11/05 06:12:57;;;;;;;;;;;16.80;95.20;;;;;;5114924;28;19914;-90
2022/11/05 06:15:23;;;;;;;;;;;16.80;95.40;;;;;;5113765;28;19923;-90
2022/11/05 06:17:48;;;;;;;;;;;16.70;95.50;;;;;;5114444;28;19908;-90
2022/11/05 06:20:14;;;;;;;;;;;16.70;95.60;;;;;;5113789;28;19907;-90
2022/11/05 06:22:39;;;;;;;;;;;16.60;95.70;;;;;;5115226;28;19912;-90
2022/11/05 06:25:06;;;;;;;;;;;16.60;95.80;;;;;;5097964;28;20060;-90
2022/11/05 06:27:31;;;;;;;;;;;16.50;95.90;;;;;;5116158;28;20065;-91
2022/11/05 06:29:57;;;;;;;;;;;16.50;96.00;;;;;;5116130;28;20036;-90
2022/11/05 06:32:22;;;;;;;;;;;16.50;96.10;;;;;;5114106;28;19908;-90
2022/11/05 06:34:48;;;;;;;;;;;16.40;96.10;;;;;;5115239;28;19988;-90
2022/11/05 06:37:14;;;;;;;;;;;16.40;96.20;;;;;;5115081;28;19914;-91
2022/11/05 06:39:39;;;;;;;;;;;16.40;96.30;;;;;;5114745;28;20166;-91
2022/11/05 06:42:05;;;;;;;;;;;16.40;96.40;;;;;;5114939;28;20018;-90
2022/11/05 06:44:30;;;;;;;;;;;16.30;96.40;;;;;;5115553;28;19942;-90
2022/11/05 06:46:56;;;;;;;;;;;16.30;96.50;;;;;;5116217;28;20002;-90
2022/11/05 06:49:23;;;;;;;;;;;16.30;96.50;;;;;;5115517;28;20270;-90
2022/11/05 06:51:49;;;;;;;;;;;16.40;96.50;;;;;;5115515;28;19947;-90
2022/11/05 06:54:15;;;;;;;;;;;16.40;96.30;;;;;;5114985;28;19912;-91
2022/11/05 06:56:41;;;;;;;;;;;16.50;96.20;;;;;;5116546;28;19912;-91
2022/11/05 06:59:07;;;;;;;;;;;16.60;95.90;;;;;;5113928;28;19915;-91
2022/11/05 07:01:33;;;;;;;;;;;16.70;95.70;;;;;;5113489;28;19973;-90
2022/11/05 07:03:58;;;;;;;;;;;16.80;95.40;;;;;;5114252;28;19914;-91
2022/11/05 07:06:25;;;;;;;;;;;16.90;94.90;;;;;;5115811;28;19908;-90
2022/11/05 07:08:50;;;;;;;;;;;17.00;94.60;;;;;;5114804;28;20007;-91
2022/11/05 07:11:16;;;;;;;;;;;17.10;94.20;;;;;;5114629;28;19922;-91
2022/11/05 07:13:41;;;;;;;;;;;17.20;94.00;;;;;;5114577;28;19979;-90
2022/11/05 07:16:07;;;;;;;;;;;17.30;93.80;;;;;;5114001;28;19915;-90
2022/11/05 07:18:33;;;;;;;;;;;17.30;93.50;;;;;;5114343;28;20155;-90
2022/11/05 07:20:59;;;;;;;;;;;17.40;93.20;;;;;;5114281;28;19964;-90
2022/11/05 07:23:25;;;;;;;;;;;17.40;93.10;;;;;;5115174;28;20364;-91
2022/11/05 07:25:50;;;;;;;;;;;17.40;93.00;;;;;;5113029;28;20003;-90
2022/11/05 07:28:16;;;;;;;;;;;17.40;92.90;;;;;;5113204;28;19907;-90
2022/11/05 07:30:42;;;;;;;;;;;17.40;92.90;;;;;;5113933;28;19912;-90
2022/11/05 07:33:08;;;;;;;;;;;17.40;92.90;;;;;;5112349;28;19908;-91
2022/11/05 07:35:33;;;;;;;;;;;17.40;93.00;;;;;;5112080;28;20193;-90
2022/11/05 07:37:59;;;;;;;;;;;17.30;93.00;;;;;;5110687;28;19934;-90
2022/11/05 07:40:26;;;;;;;;;;;17.30;93.00;;;;;;5111762;28;20006;-91
2022/11/05 07:42:53;;;;;;;;;;;17.40;93.00;;;;;;5113271;28;19988;-91
2022/11/05 07:45:19;;;;;;;;;;;17.70;92.50;;;;;;5114005;28;19908;-91
2022/11/05 07:47:46;;;;;;;;;;;17.90;91.60;;;;;;5112180;28;19908;-90
2022/11/05 07:50:13;;;;;;;;;;;18.10;91.00;;;;;;5111712;28;19912;-90
2022/11/05 07:52:38;;;;;;;;;;;18.50;89.80;;;;;;5111959;28;19923;-90
2022/11/05 07:55:04;;;;;;;;;;;19.10;86.40;;;;;;5111779;28;19919;-91
2022/11/05 07:57:30;;;;;;;;;;;19.70;81.30;;;;;;5110919;28;20014;-90
2022/11/05 07:59:56;;;;;;;;;;;20.10;77.50;;;;;;5110015;28;20018;-90
2022/11/05 08:02:21;;;;;;;;;;;20.50;74.50;;;;;;5111688;28;20109;-90
2022/11/05 08:04:47;;;;;;;;;;;20.90;72.10;;;;;;5112319;28;19943;-91
2022/11/05 08:07:12;;;;;;;;;;;21.20;69.80;;;;;;5108645;28;20293;-91
2022/11/05 08:09:38;;;;;;;;;;;21.50;67.60;;;;;;5110173;28;20277;-90
2022/11/05 08:12:03;;;;;;;;;;;21.80;65.70;;;;;;5107218;28;20320;-90
2022/11/05 08:14:29;;;;;;;;;;;22.10;63.90;;;;;;5106738;28;20192;-91
2022/11/05 08:16:56;;;;;;;;;;;22.40;62.10;;;;;;5110727;28;19998;-90
2022/11/05 08:19:21;;;;;;;;;;;22.60;60.90;;;;;;5109752;28;20300;-90
2022/11/05 08:21:47;;;;;;;;;;;22.90;59.70;;;;;;5108373;28;20313;-91
2022/11/05 08:24:13;;;;;;;;;;;23.10;59.00;;;;;;5109286;28;20156;-90
2022/11/05 08:26:38;;;;;;;;;;;23.30;58.40;;;;;;5107551;28;19908;-90
2022/11/05 08:29:04;;;;;;;;;;;23.40;57.90;;;;;;5109489;28;19907;-91
2022/11/05 08:31:30;;;;;;;;;;;23.70;57.40;;;;;;5114835;28;19918;-90
2022/11/05 08:33:56;;;;;;;;;;;23.80;56.80;;;;;;5113068;28;19911;-90
2022/11/05 08:36:22;;;;;;;;;;;24.10;56.30;;;;;;5112421;28;20163;-90
2022/11/05 08:38:47;;;;;;;;;;;24.30;55.80;;;;;;5109992;28;20292;-90
2022/11/05 08:41:13;;;;;;;;;;;24.50;55.40;;;;;;5110814;28;19908;-90
2022/11/05 08:43:38;;;;;;;;;;;24.60;55.00;;;;;;5112025;28;19915;-90
2022/11/05 08:46:04;;;;;;;;;;;24.70;55.10;;;;;;5112877;28;19915;-90
2022/11/05 08:48:30;;;;;;;;;;;24.90;54.50;;;;;;5114013;28;19908;-90
2022/11/05 08:50:58;;;;;;;;;;;24.80;54.20;;;;;;5112925;28;19911;-90
2022/11/05 08:53:24;;;;;;;;;;;25.00;54.10;;;;;;5114632;28;19916;-89
2022/11/05 08:55:50;;;;;;;;;;;25.30;53.70;;;;;;5114143;28;19919;-90
2022/11/05 08:58:16;;;;;;;;;;;25.30;53.60;;;;;;5112580;28;19908;-90
2022/11/05 09:00:43;;;;;;;;;;;25.40;53.30;;;;;;5114911;28;19935;-90
2022/11/05 09:03:09;;;;;;;;;;;25.50;53.10;;;;;;5113397;28;19915;-90
2022/11/05 09:05:36;;;;;;;;;;;25.60;52.80;;;;;;5111652;28;19908;-90
2022/11/05 09:08:06;;;;;;;;;;;25.60;52.60;;;;;;5112169;28;20193;-90
2022/11/05 09:10:31;;;;;;;;;;;25.60;52.60;;;;;;5112441;28;19937;-90
2022/11/05 09:12:57;;;;;;;;;;;25.60;52.50;;;;;;5110706;28;20016;-90
2022/11/05 09:15:23;;;;;;;;;;;25.60;52.60;;;;;;5111158;28;19916;-90
2022/11/05 09:17:49;;;;;;;;;;;25.50;52.50;;;;;;5111949;28;20300;-90
2022/11/05 09:20:15;;;;;;;;;;;25.30;52.60;;;;;;5109891;28;20040;-90
2022/11/05 09:22:40;;;;;;;;;;;24.80;52.90;;;;;;5112821;28;19911;-90
2022/11/05 09:25:06;;;;;;;;;;;24.30;53.30;;;;;;5111184;28;19927;-90
2022/11/05 09:27:32;;;;;;;;;;;23.70;54.00;;;;;;5112411;28;19912;-90
2022/11/05 09:29:58;;;;;;;;;;;23.20;54.80;;;;;;5110730;28;20501;-90
2022/11/05 09:32:23;;;;;;;;;;;22.80;55.70;;;;;;5109578;28;19907;-90
2022/11/05 09:34:49;;;;;;;;;;;22.40;56.50;;;;;;5111230;28;19974;-90
2022/11/05 09:37:15;;;;;;;;;;;22.10;57.50;;;;;;5110286;28;19907;-90
2022/11/05 09:39:40;;;;;;;;;;;21.80;58.40;;;;;;5111490;28;19950;-90
2022/11/05 09:42:07;;;;;;;;;;;21.50;59.20;;;;;;5111664;28;19907;-90
2022/11/05 09:44:39;;;;;;;;;;;21.30;60.20;;;;;;5113313;28;19918;-89
2022/11/05 09:47:07;;;;;;;;;;;21.10;61.50;;;;;;5112767;28;20303;-89
2022/11/05 09:49:38;;;;;;;;;;;21.00;62.80;;;;;;5112779;28;19919;-90
2022/11/05 09:52:05;;;;;;;;;;;20.90;63.90;;;;;;5114990;28;19947;-90
2022/11/05 09:54:30;;;;;;;;;;;20.70;64.90;;;;;;5112058;28;19911;-90
2022/11/05 09:56:56;;;;;;;;;;;20.70;65.90;;;;;;5112051;28;19988;-89
2022/11/05 09:59:22;;;;;;;;;;;20.50;66.70;;;;;;5112010;28;19962;-89
2022/11/05 10:01:50;;;;;;;;;;;20.50;67.50;;;;;;5111858;28;19908;-89
2022/11/05 10:04:17;;;;;;;;;;;20.40;68.10;;;;;;5110438;28;20256;-89
2022/11/05 10:06:57;;;;;;;;;;;20.40;68.80;;;;;;5109813;28;20266;-89
2022/11/05 10:09:29;;;;;;;;;;;20.30;69.40;;;;;;5109870;28;19908;-89
2022/11/05 10:12:03;;;;;;;;;;;20.20;70.10;;;;;;5110511;28;19908;-89
2022/11/05 10:14:30;;;;;;;;;;;20.20;70.80;;;;;;5111902;28;20027;-89
2022/11/05 10:17:04;;;;;;;;;;;20.10;71.40;;;;;;5109683;28;19939;-89
2022/11/05 10:19:37;;;;;;;;;;;20.10;72.00;;;;;;5109821;28;20008;-89
2022/11/05 10:22:11;;;;;;;;;;;20.00;72.40;;;;;;5107432;28;19908;-89
2022/11/05 10:24:39;;;;;;;;;;;20.00;72.80;;;;;;5110542;28;19908;-89
2022/11/05 10:27:05;;;;;;;;;;;20.00;73.10;;;;;;5111463;28;20010;-89
2022/11/05 10:29:32;;;;;;;;;;;20.00;73.30;;;;;;5111387;28;20249;-89
2022/11/05 10:31:59;;;;;;;;;;;19.90;73.60;;;;;;5109953;28;19907;-89
2022/11/05 10:34:26;;;;;;;;;;;19.90;74.20;;;;;;5112288;28;19919;-89
2022/11/05 10:36:53;;;;;;;;;;;19.80;74.60;;;;;;5112821;28;19918;-89
2022/11/05 10:39:19;;;;;;;;;;;19.80;75.00;;;;;;5112184;28;19918;-89
2022/11/05 10:42:04;;;;;;;;;;;19.70;75.50;;;;;;5110991;28;20216;-89
2022/11/05 10:44:36;;;;;;;;;;;19.60;76.00;;;;;;5110324;28;20131;-89
2022/11/05 10:47:28;;;;;;;;;;;19.60;76.70;;;;;;5108396;28;19904;-89
2022/11/05 10:49:58;;;;;;;;;;;19.50;77.20;;;;;;5076165;28;19920;-89
2022/11/05 10:52:34;;;;;;;;;;;19.40;77.80;;;;;;5106234;28;19994;-89
2022/11/05 10:55:01;;;;;;;;;;;19.30;78.60;;;;;;5106584;28;20067;-90
2022/11/05 10:57:35;;;;;;;;;;;19.30;79.40;;;;;;5107532;28;20107;-89
2022/11/05 11:00:16;;;;;;;;;;;19.20;80.00;;;;;;5107435;28;19918;-89
2022/11/05 11:02:56;;;;;;;;;;;19.20;80.60;;;;;;5107204;28;19919;-89
2022/11/05 11:05:25;;;;;;;;;;;19.10;81.00;;;;;;5107241;28;20083;-89
2022/11/05 11:08:01;;;;;;;;;;;19.10;81.40;;;;;;5106538;28;19951;-89
2022/11/05 11:10:27;;;;;;;;;;;19.10;81.70;;;;;;5107530;28;19962;-89
2022/11/05 11:12:55;;;;;;;;;;;19.00;82.00;;;;;;5106775;28;20007;-89
2022/11/05 11:15:23;;;;;;;;;;;19.00;82.20;;;;;;5109182;28;20301;-89
2022/11/05 11:17:48;;;;;;;;;;;19.00;82.40;;;;;;5106909;28;20039;-89
2022/11/05 11:20:27;;;;;;;;;;;19.10;82.50;;;;;;5106060;28;19916;-89
2022/11/05 11:23:04;;;;;;;;;;;19.10;82.60;;;;;;5105931;28;19993;-89
2022/11/05 11:25:38;;;;;;;;;;;19.00;82.80;;;;;;5104239;28;19908;-89
2022/11/05 11:28:04;;;;;;;;;;;19.00;83.20;;;;;;5105073;28;20066;-89
2022/11/05 11:30:30;;;;;;;;;;;19.00;83.50;;;;;;5099068;28;19912;-90
2022/11/05 11:33:04;;;;;;;;;;;19.00;83.70;;;;;;5107170;28;19947;-89
2022/11/05 11:35:31;;;;;;;;;;;19.00;83.80;;;;;;5103393;28;19919;-89
2022/11/05 11:37:57;;;;;;;;;;;18.90;83.90;;;;;;5086874;28;19968;-89
2022/11/05 11:40:24;;;;;;;;;;;18.90;84.20;;;;;;5104887;28;20441;-89
2022/11/05 11:42:52;;;;;;;;;;;18.90;84.50;;;;;;5104597;28;20198;-90
2022/11/05 11:45:24;;;;;;;;;;;18.90;84.80;;;;;;5103997;28;19930;-89
2022/11/05 11:47:49;;;;;;;;;;;18.80;85.10;;;;;;5102868;28;19919;-89
2022/11/05 11:50:35;;;;;;;;;;;18.80;85.50;;;;;;5105390;28;20154;-89
2022/11/05 11:53:19;;;;;;;;;;;18.80;85.90;;;;;;5103106;28;19916;-89
2022/11/05 11:55:54;;;;;;;;;;;18.80;86.20;;;;;;5103051;28;19911;-89
2022/11/05 11:58:20;;;;;;;;;;;18.80;86.40;;;;;;5092135;28;20143;-88
2022/11/05 12:00:48;;;;;;;;;;;18.80;86.70;;;;;;5087927;28;19916;-89
2022/11/05 12:03:14;;;;;;;;;;;18.80;86.90;;;;;;5101731;28;19912;-88
2022/11/05 12:05:52;;;;;;;;;;;18.80;87.10;;;;;;5105707;28;20163;-89
2022/11/05 12:08:17;;;;;;;;;;;18.80;87.30;;;;;;5107341;28;20283;-89
2022/11/05 12:11:03;;;;;;;;;;;18.70;87.60;;;;;;5099997;28;20283;-89
2022/11/05 12:13:28;;;;;;;;;;;18.70;87.90;;;;;;5087437;28;19908;-89
2022/11/05 12:15:54;;;;;;;;;;;18.60;88.20;;;;;;5084959;28;20075;-89
2022/11/05 12:18:42;;;;;;;;;;;18.60;88.40;;;;;;5084410;28;20015;-89
2022/11/05 12:21:18;;;;;;;;;;;18.60;88.70;;;;;;5056643;28;19912;-89
2022/11/05 12:23:50;;;;;;;;;;;18.60;88.90;;;;;;5094018;28;19920;-89
2022/11/05 12:26:22;;;;;;;;;;;18.50;89.10;;;;;;5088666;28;19913;-89
2022/11/05 12:28:47;;;;;;;;;;;18.50;89.40;;;;;;5093256;28;19912;-89
2022/11/05 12:31:28;;;;;;;;;;;18.50;89.60;;;;;;5105635;28;19941;-89
2022/11/05 12:34:12;;;;;;;;;;;18.40;89.80;;;;;;5103602;28;19994;-89
2022/11/05 12:36:41;;;;;;;;;;;18.40;90.00;;;;;;5107249;28;20201;-89
2022/11/05 12:39:25;;;;;;;;;;;18.40;90.10;;;;;;5107448;28;19908;-89
2022/11/05 12:42:00;;;;;;;;;;;18.40;90.20;;;;;;5107595;28;20002;-89
2022/11/05 12:44:39;;;;;;;;;;;18.30;90.40;;;;;;5104436;28;19958;-89
2022/11/05 12:47:25;;;;;;;;;;;18.30;90.60;;;;;;5106159;28;19916;-89
2022/11/05 12:49:58;;;;;;;;;;;18.30;90.70;;;;;;5106284;28;20258;-89
2022/11/05 12:52:39;;;;;;;;;;;18.20;90.90;;;;;;5107217;28;19919;-89
2022/11/05 12:55:22;;;;;;;;;;;18.20;91.00;;;;;;5108524;28;20285;-89
2022/11/05 12:57:51;;;;;;;;;;;18.20;91.10;;;;;;5105199;28;19908;-90
2022/11/05 13:00:18;;;;;;;;;;;18.20;91.20;;;;;;5105564;28;20105;-90
2022/11/05 13:02:47;;;;;;;;;;;18.10;91.30;;;;;;5104432;28;20258;-89
2022/11/05 13:05:15;;;;;;;;;;;18.10;91.40;;;;;;5105413;28;19912;-89
2022/11/05 13:07:45;;;;;;;;;;;18.00;91.60;;;;;;5104630;28;19916;-89
2022/11/05 13:10:29;;;;;;;;;;;17.90;91.70;;;;;;5104804;28;19939;-89
2022/11/05 13:12:57;;;;;;;;;;;17.90;91.90;;;;;;5107893;28;20091;-89
2022/11/05 13:15:29;;;;;;;;;;;17.90;92.10;;;;;;5105216;28;20428;-89
2022/11/05 13:17:58;;;;;;;;;;;17.80;92.20;;;;;;5101625;28;19914;-89
2022/11/05 13:20:27;;;;;;;;;;;17.80;92.40;;;;;;5104771;28;20286;-89
2022/11/05 13:22:59;;;;;;;;;;;17.70;92.60;;;;;;5105017;28;19908;-89
2022/11/05 13:25:30;;;;;;;;;;;17.70;92.70;;;;;;5104910;28;19919;-89
2022/11/05 13:28:01;;;;;;;;;;;17.70;92.80;;;;;;5103148;28;20265;-89
2022/11/05 13:30:30;;;;;;;;;;;17.70;92.90;;;;;;5104289;28;20076;-89
2022/11/05 13:33:00;;;;;;;;;;;17.70;93.00;;;;;;5108706;28;19915;-89
2022/11/05 13:35:31;;;;;;;;;;;17.70;93.00;;;;;;5109525;28;19978;-89
2022/11/05 13:41:18;;;;;;;;;;;17.70;93.10;;;;;;5081239;28;20297;-89
2022/11/05 13:43:51;;;;;;;;;;;17.70;93.20;;;;;;5105986;28;19908;-89
2022/11/05 13:46:38;;;;;;;;;;;17.70;93.20;;;;;;5107784;28;19927;-89
2022/11/05 13:49:27;;;;;;;;;;;17.70;93.20;;;;;;5101149;28;20296;-89
2022/11/05 13:51:55;;;;;;;;;;;17.70;93.20;;;;;;5077613;28;19920;-89
2022/11/05 13:54:36;;;;;;;;;;;17.60;93.20;;;;;;5101752;28;19911;-89
2022/11/05 13:57:17;;;;;;;;;;;17.70;93.30;;;;;;5106517;28;20318;-89
2022/11/05 13:59:55;;;;;;;;;;;17.70;93.30;;;;;;5087668;28;19915;-89
2022/11/05 14:02:23;;;;;;;;;;;17.70;93.40;;;;;;5092537;28;20008;-89
2022/11/05 14:04:50;;;;;;;;;;;17.60;93.40;;;;;;5089312;28;20014;-89
2022/11/05 14:07:16;;;;;;;;;;;17.60;93.40;;;;;;5086021;28;19947;-89
2022/11/05 14:09:42;;;;;;;;;;;17.60;93.50;;;;;;5084056;28;20175;-89
2022/11/05 14:12:18;;;;;;;;;;;17.60;93.60;;;;;;5085569;28;19908;-89
2022/11/05 14:14:46;;;;;;;;;;;17.60;93.60;;;;;;5084932;28;19923;-89
2022/11/05 14:17:13;;;;;;;;;;;17.50;93.60;;;;;;5093999;28;20088;-89
2022/11/05 14:19:50;;;;;;;;;;;17.50;93.70;;;;;;5109464;28;19908;-89
2022/11/05 14:22:31;;;;;;;;;;;17.50;93.80;;;;;;5107978;28;19907;-89
2022/11/05 14:24:57;;;;;;;;;;;17.50;93.80;;;;;;5109246;28;19908;-89
2022/11/05 14:27:35;;;;;;;;;;;17.50;93.90;;;;;;5108519;28;20344;-89
2022/11/05 14:30:21;;;;;;;;;;;17.40;94.00;;;;;;5106981;28;19954;-89
2022/11/05 14:32:49;;;;;;;;;;;17.40;94.00;;;;;;5089567;28;20251;-89
2022/11/05 14:35:15;;;;;;;;;;;17.40;94.20;;;;;;5109992;28;19909;-89
2022/11/05 14:37:41;;;;;;;;;;;17.40;94.20;;;;;;5109480;28;19926;-89
2022/11/05 14:40:25;;;;;;;;;;;17.40;94.30;;;;;;5109087;28;19908;-89
2022/11/05 14:42:52;;;;;;;;;;;17.30;94.30;;;;;;5107444;28;19919;-89
2022/11/05 14:45:40;;;;;;;;;;;17.30;94.40;;;;;;5108579;28;19912;-89
2022/11/05 14:48:22;;;;;;;;;;;17.30;94.40;;;;;;5110078;28;19908;-89
2022/11/05 14:50:48;;;;;;;;;;;17.30;94.50;;;;;;5105648;28;20055;-89
2022/11/05 14:53:30;;;;;;;;;;;17.30;94.50;;;;;;5095388;28;19922;-89
2022/11/05 14:56:01;;;;;;;;;;;17.30;94.60;;;;;;5102284;28;20309;-89
2022/11/05 14:58:27;;;;;;;;;;;17.30;94.70;;;;;;5086595;28;20155;-89
2022/11/05 15:00:53;;;;;;;;;;;17.30;94.70;;;;;;5084019;28;19908;-89
2022/11/05 15:03:30;;;;;;;;;;;17.20;94.80;;;;;;5086105;28;19912;-89
2022/11/05 15:06:16;;;;;;;;;;;17.20;94.80;;;;;;5085959;28;19973;-89